sensor_id;sensor_type;location;lat;lon;timestamp;P1;durP1;ratioP1;P2;durP2;ratioP2
18818;SDS011;9537;45.594;9.294;2024-02-28T00:00:27;12.37;;;8.73;;
18818;SDS011;9537;45.594;9.294;2024-02-28T00:01:30;14.33;;;9.33;;
18818;SDS011;9537;45.594;9.294;2024-02-28T00:02:32;12.37;;;9.17;;
18818;SDS011;9537;45.594;9.294;2024-02-28T00:03:34;11.53;;;8.63;;
18818;SDS011;9537;45.594;9.294;2024-02-28T00:04:35;11.63;;;9.00;;
18818;SDS011;9537;45.594;9.294;2024-02-28T00:05:37;13.83;;;9.50;;
18818;SDS011;9537;45.594;9.294;2024-02-28T00:06:38;11.50;;;8.73;;
18818;SDS011;9537;45.594;9.294;2024-02-28T00:07:40;12.13;;;9.03;;
18818;SDS011;9537;45.594;9.294;2024-02-28T00:08:41;11.20;;;9.43;;
18818;SDS011;9537;45.594;9.294;2024-02-28T00:09:43;12.10;;;9.53;;
18818;SDS011;9537;45.594;9.294;2024-02-28T00:10:44;11.50;;;9.13;;
18818;SDS011;9537;45.594;9.294;2024-02-28T00:11:46;12.90;;;9.13;;
18818;SDS011;9537;45.594;9.294;2024-02-28T00:12:47;12.47;;;9.10;;
18818;SDS011;9537;45.594;9.294;2024-02-28T00:13:49;11.57;;;8.70;;
18818;SDS011;9537;45.594;9.294;2024-02-28T00:14:50;11.63;;;9.07;;
18818;SDS011;9537;45.594;9.294;2024-02-28T00:15:52;11.27;;;8.77;;
18818;SDS011;9537;45.594;9.294;2024-02-28T00:16:52;11.73;;;9.03;;
18818;SDS011;9537;45.594;9.294;2024-02-28T00:17:55;12.50;;;9.00;;
18818;SDS011;9537;45.594;9.294;2024-02-28T00:18:56;10.50;;;8.63;;
18818;SDS011;9537;45.594;9.294;2024-02-28T00:19:58;12.60;;;8.80;;
18818;SDS011;9537;45.594;9.294;2024-02-28T00:20:59;12.67;;;9.37;;
18818;SDS011;9537;45.594;9.294;2024-02-28T00:21:59;13.30;;;8.77;;
18818;SDS011;9537;45.594;9.294;2024-02-28T00:23:01;13.47;;;9.30;;
18818;SDS011;9537;45.594;9.294;2024-02-28T00:24:02;15.80;;;9.13;;
18818;SDS011;9537;45.594;9.294;2024-02-28T00:25:04;10.97;;;8.77;;
18818;SDS011;9537;45.594;9.294;2024-02-28T00:26:06;11.60;;;8.60;;
18818;SDS011;9537;45.594;9.294;2024-02-28T00:27:08;10.63;;;8.30;;
18818;SDS011;9537;45.594;9.294;2024-02-28T00:28:09;13.33;;;9.23;;
18818;SDS011;9537;45.594;9.294;2024-02-28T00:29:09;11.07;;;9.17;;
18818;SDS011;9537;45.594;9.294;2024-02-28T00:30:12;13.40;;;9.37;;
18818;SDS011;9537;45.594;9.294;2024-02-28T00:31:13;14.60;;;9.40;;
18818;SDS011;9537;45.594;9.294;2024-02-28T00:32:15;12.90;;;9.67;;
18818;SDS011;9537;45.594;9.294;2024-02-28T00:33:18;16.10;;;9.33;;
18818;SDS011;9537;45.594;9.294;2024-02-28T00:34:20;13.00;;;9.37;;
18818;SDS011;9537;45.594;9.294;2024-02-28T00:35:21;12.60;;;9.77;;
18818;SDS011;9537;45.594;9.294;2024-02-28T00:36:23;10.57;;;9.23;;
18818;SDS011;9537;45.594;9.294;2024-02-28T00:37:23;12.40;;;9.37;;
18818;SDS011;9537;45.594;9.294;2024-02-28T00:38:25;12.13;;;10.43;;
18818;SDS011;9537;45.594;9.294;2024-02-28T00:39:27;11.43;;;9.63;;
18818;SDS011;9537;45.594;9.294;2024-02-28T00:40:28;12.00;;;9.80;;
18818;SDS011;9537;45.594;9.294;2024-02-28T00:41:30;11.93;;;9.73;;
18818;SDS011;9537;45.594;9.294;2024-02-28T00:42:30;13.00;;;9.83;;
18818;SDS011;9537;45.594;9.294;2024-02-28T00:43:32;13.17;;;9.57;;
18818;SDS011;9537;45.594;9.294;2024-02-28T00:44:33;12.97;;;9.93;;
18818;SDS011;9537;45.594;9.294;2024-02-28T00:45:34;12.77;;;9.50;;
18818;SDS011;9537;45.594;9.294;2024-02-28T00:46:36;12.40;;;8.87;;
18818;SDS011;9537;45.594;9.294;2024-02-28T00:47:37;10.70;;;9.07;;
18818;SDS011;9537;45.594;9.294;2024-02-28T00:48:41;14.47;;;9.30;;
18818;SDS011;9537;45.594;9.294;2024-02-28T00:49:42;11.53;;;9.00;;
18818;SDS011;9537;45.594;9.294;2024-02-28T00:50:43;10.37;;;8.57;;
18818;SDS011;9537;45.594;9.294;2024-02-28T00:51:45;9.90;;;7.87;;
18818;SDS011;9537;45.594;9.294;2024-02-28T00:52:47;11.37;;;9.73;;
18818;SDS011;9537;45.594;9.294;2024-02-28T00:53:49;9.70;;;8.70;;
18818;SDS011;9537;45.594;9.294;2024-02-28T00:54:50;10.37;;;8.23;;
18818;SDS011;9537;45.594;9.294;2024-02-28T00:55:51;12.00;;;8.50;;
18818;SDS011;9537;45.594;9.294;2024-02-28T00:56:52;11.03;;;9.23;;
18818;SDS011;9537;45.594;9.294;2024-02-28T00:57:53;13.27;;;8.50;;
18818;SDS011;9537;45.594;9.294;2024-02-28T00:58:54;10.60;;;8.27;;
18818;SDS011;9537;45.594;9.294;2024-02-28T00:59:55;11.03;;;8.40;;
18818;SDS011;9537;45.594;9.294;2024-02-28T01:00:57;13.27;;;9.33;;
18818;SDS011;9537;45.594;9.294;2024-02-28T01:01:58;11.00;;;8.37;;
18818;SDS011;9537;45.594;9.294;2024-02-28T01:02:59;11.73;;;8.13;;
18818;SDS011;9537;45.594;9.294;2024-02-28T01:04:05;12.23;;;8.40;;
18818;SDS011;9537;45.594;9.294;2024-02-28T01:05:08;13.27;;;8.60;;
18818;SDS011;9537;45.594;9.294;2024-02-28T01:06:08;13.87;;;9.00;;
18818;SDS011;9537;45.594;9.294;2024-02-28T01:07:10;12.20;;;8.23;;
18818;SDS011;9537;45.594;9.294;2024-02-28T01:08:11;10.13;;;8.20;;
18818;SDS011;9537;45.594;9.294;2024-02-28T01:09:13;11.53;;;8.23;;
18818;SDS011;9537;45.594;9.294;2024-02-28T01:10:14;10.20;;;7.73;;
18818;SDS011;9537;45.594;9.294;2024-02-28T01:11:16;13.70;;;8.67;;
18818;SDS011;9537;45.594;9.294;2024-02-28T01:12:17;9.43;;;7.90;;
18818;SDS011;9537;45.594;9.294;2024-02-28T01:13:19;10.50;;;7.93;;
18818;SDS011;9537;45.594;9.294;2024-02-28T01:14:19;11.03;;;7.70;;
18818;SDS011;9537;45.594;9.294;2024-02-28T01:15:21;13.60;;;8.83;;
18818;SDS011;9537;45.594;9.294;2024-02-28T01:16:22;11.43;;;8.20;;
18818;SDS011;9537;45.594;9.294;2024-02-28T01:17:23;10.03;;;8.10;;
18818;SDS011;9537;45.594;9.294;2024-02-28T01:18:25;12.70;;;8.57;;
18818;SDS011;9537;45.594;9.294;2024-02-28T01:19:27;10.83;;;8.27;;
18818;SDS011;9537;45.594;9.294;2024-02-28T01:20:29;13.00;;;8.73;;
18818;SDS011;9537;45.594;9.294;2024-02-28T01:21:30;11.07;;;9.17;;
18818;SDS011;9537;45.594;9.294;2024-02-28T01:22:32;11.47;;;8.37;;
18818;SDS011;9537;45.594;9.294;2024-02-28T01:23:32;11.70;;;8.73;;
18818;SDS011;9537;45.594;9.294;2024-02-28T01:24:33;12.93;;;8.63;;
18818;SDS011;9537;45.594;9.294;2024-02-28T01:25:35;11.63;;;8.43;;
18818;SDS011;9537;45.594;9.294;2024-02-28T01:26:36;14.27;;;9.20;;
18818;SDS011;9537;45.594;9.294;2024-02-28T01:27:36;13.37;;;9.23;;
18818;SDS011;9537;45.594;9.294;2024-02-28T01:28:38;11.73;;;9.10;;
18818;SDS011;9537;45.594;9.294;2024-02-28T01:29:39;10.53;;;8.73;;
18818;SDS011;9537;45.594;9.294;2024-02-28T01:30:40;12.63;;;9.20;;
18818;SDS011;9537;45.594;9.294;2024-02-28T01:31:42;9.87;;;8.60;;
18818;SDS011;9537;45.594;9.294;2024-02-28T01:32:43;10.27;;;8.13;;
18818;SDS011;9537;45.594;9.294;2024-02-28T01:33:44;10.20;;;8.00;;
18818;SDS011;9537;45.594;9.294;2024-02-28T01:34:47;10.67;;;8.20;;
18818;SDS011;9537;45.594;9.294;2024-02-28T01:35:48;12.77;;;8.30;;
18818;SDS011;9537;45.594;9.294;2024-02-28T01:36:49;10.20;;;8.13;;
18818;SDS011;9537;45.594;9.294;2024-02-28T01:37:51;12.17;;;8.13;;
18818;SDS011;9537;45.594;9.294;2024-02-28T01:38:52;10.63;;;7.77;;
18818;SDS011;9537;45.594;9.294;2024-02-28T01:39:54;10.60;;;8.03;;
18818;SDS011;9537;45.594;9.294;2024-02-28T01:40:55;12.03;;;8.63;;
18818;SDS011;9537;45.594;9.294;2024-02-28T01:41:57;10.70;;;7.63;;
18818;SDS011;9537;45.594;9.294;2024-02-28T01:43:02;10.07;;;7.97;;
18818;SDS011;9537;45.594;9.294;2024-02-28T01:44:05;11.60;;;8.13;;
18818;SDS011;9537;45.594;9.294;2024-02-28T01:45:06;10.30;;;8.50;;
18818;SDS011;9537;45.594;9.294;2024-02-28T01:46:12;12.73;;;8.67;;
18818;SDS011;9537;45.594;9.294;2024-02-28T01:47:21;12.87;;;8.67;;
18818;SDS011;9537;45.594;9.294;2024-02-28T01:48:23;10.53;;;7.63;;
18818;SDS011;9537;45.594;9.294;2024-02-28T01:49:24;9.80;;;7.87;;
18818;SDS011;9537;45.594;9.294;2024-02-28T01:50:28;10.70;;;7.80;;
18818;SDS011;9537;45.594;9.294;2024-02-28T01:51:29;12.13;;;8.13;;
18818;SDS011;9537;45.594;9.294;2024-02-28T01:52:31;9.97;;;7.63;;
18818;SDS011;9537;45.594;9.294;2024-02-28T01:53:52;10.77;;;8.30;;
18818;SDS011;9537;45.594;9.294;2024-02-28T01:55:13;14.07;;;8.23;;
18818;SDS011;9537;45.594;9.294;2024-02-28T01:56:32;11.10;;;8.10;;
18818;SDS011;9537;45.594;9.294;2024-02-28T01:57:37;9.70;;;8.13;;
18818;SDS011;9537;45.594;9.294;2024-02-28T01:58:38;11.33;;;7.97;;
18818;SDS011;9537;45.594;9.294;2024-02-28T01:59:40;11.37;;;8.90;;
18818;SDS011;9537;45.594;9.294;2024-02-28T02:00:42;9.60;;;8.33;;
18818;SDS011;9537;45.594;9.294;2024-02-28T02:01:45;10.67;;;8.67;;
18818;SDS011;9537;45.594;9.294;2024-02-28T02:02:46;10.90;;;8.90;;
18818;SDS011;9537;45.594;9.294;2024-02-28T02:03:48;12.10;;;8.17;;
18818;SDS011;9537;45.594;9.294;2024-02-28T02:04:49;11.80;;;8.33;;
18818;SDS011;9537;45.594;9.294;2024-02-28T02:05:54;9.90;;;8.30;;
18818;SDS011;9537;45.594;9.294;2024-02-28T02:06:55;11.77;;;8.30;;
18818;SDS011;9537;45.594;9.294;2024-02-28T02:07:58;10.50;;;8.47;;
18818;SDS011;9537;45.594;9.294;2024-02-28T02:09:01;9.73;;;8.30;;
18818;SDS011;9537;45.594;9.294;2024-02-28T02:10:02;9.17;;;7.47;;
18818;SDS011;9537;45.594;9.294;2024-02-28T02:11:08;9.80;;;7.93;;
18818;SDS011;9537;45.594;9.294;2024-02-28T02:12:09;8.97;;;7.83;;
18818;SDS011;9537;45.594;9.294;2024-02-28T02:13:10;11.70;;;8.03;;
18818;SDS011;9537;45.594;9.294;2024-02-28T02:14:11;10.60;;;8.10;;
18818;SDS011;9537;45.594;9.294;2024-02-28T02:15:14;11.13;;;8.30;;
18818;SDS011;9537;45.594;9.294;2024-02-28T02:16:15;9.57;;;7.73;;
18818;SDS011;9537;45.594;9.294;2024-02-28T02:17:17;14.10;;;8.90;;
18818;SDS011;9537;45.594;9.294;2024-02-28T02:18:17;11.90;;;8.37;;
18818;SDS011;9537;45.594;9.294;2024-02-28T02:19:18;11.23;;;8.43;;
18818;SDS011;9537;45.594;9.294;2024-02-28T02:20:20;10.27;;;7.80;;
18818;SDS011;9537;45.594;9.294;2024-02-28T02:21:24;9.40;;;8.00;;
18818;SDS011;9537;45.594;9.294;2024-02-28T02:22:34;10.17;;;8.20;;
18818;SDS011;9537;45.594;9.294;2024-02-28T02:23:35;13.27;;;8.57;;
18818;SDS011;9537;45.594;9.294;2024-02-28T02:24:39;14.20;;;9.00;;
18818;SDS011;9537;45.594;9.294;2024-02-28T02:25:44;12.67;;;8.87;;
18818;SDS011;9537;45.594;9.294;2024-02-28T02:26:45;8.23;;;7.40;;
18818;SDS011;9537;45.594;9.294;2024-02-28T02:27:47;11.70;;;7.97;;
18818;SDS011;9537;45.594;9.294;2024-02-28T02:28:48;11.03;;;8.47;;
18818;SDS011;9537;45.594;9.294;2024-02-28T02:29:49;9.87;;;8.10;;
18818;SDS011;9537;45.594;9.294;2024-02-28T02:30:50;13.13;;;8.00;;
18818;SDS011;9537;45.594;9.294;2024-02-28T02:31:51;10.27;;;8.23;;
18818;SDS011;9537;45.594;9.294;2024-02-28T02:32:52;9.87;;;7.47;;
18818;SDS011;9537;45.594;9.294;2024-02-28T02:33:53;11.93;;;8.17;;
18818;SDS011;9537;45.594;9.294;2024-02-28T02:34:55;12.07;;;7.63;;
18818;SDS011;9537;45.594;9.294;2024-02-28T02:35:56;11.23;;;8.00;;
18818;SDS011;9537;45.594;9.294;2024-02-28T02:36:58;10.03;;;7.73;;
18818;SDS011;9537;45.594;9.294;2024-02-28T02:38:00;10.17;;;8.00;;
18818;SDS011;9537;45.594;9.294;2024-02-28T02:39:00;10.07;;;8.13;;
18818;SDS011;9537;45.594;9.294;2024-02-28T02:40:02;10.80;;;8.80;;
18818;SDS011;9537;45.594;9.294;2024-02-28T02:41:04;9.67;;;8.43;;
18818;SDS011;9537;45.594;9.294;2024-02-28T02:42:08;15.80;;;9.00;;
18818;SDS011;9537;45.594;9.294;2024-02-28T02:43:09;9.47;;;7.93;;
18818;SDS011;9537;45.594;9.294;2024-02-28T02:44:11;9.57;;;7.53;;
18818;SDS011;9537;45.594;9.294;2024-02-28T02:45:12;10.97;;;8.13;;
18818;SDS011;9537;45.594;9.294;2024-02-28T02:46:13;11.63;;;8.30;;
18818;SDS011;9537;45.594;9.294;2024-02-28T02:47:14;11.67;;;8.20;;
18818;SDS011;9537;45.594;9.294;2024-02-28T02:48:16;12.07;;;8.30;;
18818;SDS011;9537;45.594;9.294;2024-02-28T02:49:17;12.33;;;8.63;;
18818;SDS011;9537;45.594;9.294;2024-02-28T02:50:19;9.10;;;8.00;;
18818;SDS011;9537;45.594;9.294;2024-02-28T02:51:20;12.20;;;8.07;;
18818;SDS011;9537;45.594;9.294;2024-02-28T02:52:20;13.63;;;8.57;;
18818;SDS011;9537;45.594;9.294;2024-02-28T02:53:23;10.47;;;7.70;;
18818;SDS011;9537;45.594;9.294;2024-02-28T02:54:24;10.77;;;8.30;;
18818;SDS011;9537;45.594;9.294;2024-02-28T02:55:26;11.63;;;8.57;;
18818;SDS011;9537;45.594;9.294;2024-02-28T02:56:27;9.47;;;7.87;;
18818;SDS011;9537;45.594;9.294;2024-02-28T02:57:28;11.50;;;8.03;;
18818;SDS011;9537;45.594;9.294;2024-02-28T02:58:30;10.57;;;7.23;;
18818;SDS011;9537;45.594;9.294;2024-02-28T02:59:32;8.67;;;6.80;;
18818;SDS011;9537;45.594;9.294;2024-02-28T03:00:36;9.23;;;7.30;;
18818;SDS011;9537;45.594;9.294;2024-02-28T03:01:37;8.80;;;7.00;;
18818;SDS011;9537;45.594;9.294;2024-02-28T03:02:38;9.10;;;6.77;;
18818;SDS011;9537;45.594;9.294;2024-02-28T03:03:40;11.37;;;6.63;;
18818;SDS011;9537;45.594;9.294;2024-02-28T03:04:41;7.97;;;6.87;;
18818;SDS011;9537;45.594;9.294;2024-02-28T03:05:42;11.53;;;7.47;;
18818;SDS011;9537;45.594;9.294;2024-02-28T03:06:43;9.10;;;7.10;;
18818;SDS011;9537;45.594;9.294;2024-02-28T03:07:45;9.37;;;6.67;;
18818;SDS011;9537;45.594;9.294;2024-02-28T03:08:47;9.33;;;6.77;;
18818;SDS011;9537;45.594;9.294;2024-02-28T03:09:49;9.73;;;6.77;;
18818;SDS011;9537;45.594;9.294;2024-02-28T03:10:49;7.70;;;6.67;;
18818;SDS011;9537;45.594;9.294;2024-02-28T03:11:51;11.07;;;6.90;;
18818;SDS011;9537;45.594;9.294;2024-02-28T03:12:52;11.20;;;6.33;;
18818;SDS011;9537;45.594;9.294;2024-02-28T03:13:54;9.53;;;6.80;;
18818;SDS011;9537;45.594;9.294;2024-02-28T03:14:55;11.13;;;7.07;;
18818;SDS011;9537;45.594;9.294;2024-02-28T03:15:57;9.60;;;7.10;;
18818;SDS011;9537;45.594;9.294;2024-02-28T03:16:58;7.43;;;6.27;;
18818;SDS011;9537;45.594;9.294;2024-02-28T03:18:00;8.03;;;6.60;;
18818;SDS011;9537;45.594;9.294;2024-02-28T03:19:00;9.33;;;6.67;;
18818;SDS011;9537;45.594;9.294;2024-02-28T03:20:03;9.67;;;6.17;;
18818;SDS011;9537;45.594;9.294;2024-02-28T03:21:04;9.20;;;6.43;;
18818;SDS011;9537;45.594;9.294;2024-02-28T03:22:06;8.57;;;6.30;;
18818;SDS011;9537;45.594;9.294;2024-02-28T03:23:06;9.87;;;6.40;;
18818;SDS011;9537;45.594;9.294;2024-02-28T03:24:09;8.23;;;6.07;;
18818;SDS011;9537;45.594;9.294;2024-02-28T03:25:10;10.07;;;6.37;;
18818;SDS011;9537;45.594;9.294;2024-02-28T03:26:12;9.27;;;7.50;;
18818;SDS011;9537;45.594;9.294;2024-02-28T03:27:13;8.50;;;6.83;;
18818;SDS011;9537;45.594;9.294;2024-02-28T03:28:15;8.80;;;6.57;;
18818;SDS011;9537;45.594;9.294;2024-02-28T03:29:15;9.40;;;6.73;;
18818;SDS011;9537;45.594;9.294;2024-02-28T03:30:16;9.33;;;7.00;;
18818;SDS011;9537;45.594;9.294;2024-02-28T03:31:18;10.43;;;7.30;;
18818;SDS011;9537;45.594;9.294;2024-02-28T03:32:18;9.97;;;7.17;;
18818;SDS011;9537;45.594;9.294;2024-02-28T03:33:20;8.70;;;7.10;;
18818;SDS011;9537;45.594;9.294;2024-02-28T03:34:22;9.67;;;6.97;;
18818;SDS011;9537;45.594;9.294;2024-02-28T03:35:22;8.63;;;7.23;;
18818;SDS011;9537;45.594;9.294;2024-02-28T03:36:24;9.07;;;6.77;;
18818;SDS011;9537;45.594;9.294;2024-02-28T03:37:25;8.90;;;7.20;;
18818;SDS011;9537;45.594;9.294;2024-02-28T03:38:27;9.27;;;6.53;;
18818;SDS011;9537;45.594;9.294;2024-02-28T03:39:30;9.43;;;6.10;;
18818;SDS011;9537;45.594;9.294;2024-02-28T03:40:31;8.30;;;6.20;;
18818;SDS011;9537;45.594;9.294;2024-02-28T03:41:32;8.87;;;6.10;;
18818;SDS011;9537;45.594;9.294;2024-02-28T03:42:34;8.70;;;5.80;;
18818;SDS011;9537;45.594;9.294;2024-02-28T03:43:35;9.93;;;6.70;;
18818;SDS011;9537;45.594;9.294;2024-02-28T03:44:37;9.17;;;6.67;;
18818;SDS011;9537;45.594;9.294;2024-02-28T03:45:37;11.43;;;5.90;;
18818;SDS011;9537;45.594;9.294;2024-02-28T03:46:40;8.37;;;5.47;;
18818;SDS011;9537;45.594;9.294;2024-02-28T03:47:41;8.70;;;5.40;;
18818;SDS011;9537;45.594;9.294;2024-02-28T03:48:42;6.50;;;5.83;;
18818;SDS011;9537;45.594;9.294;2024-02-28T03:49:43;7.80;;;5.80;;
18818;SDS011;9537;45.594;9.294;2024-02-28T03:50:45;7.57;;;5.20;;
18818;SDS011;9537;45.594;9.294;2024-02-28T03:51:46;9.13;;;5.40;;
18818;SDS011;9537;45.594;9.294;2024-02-28T03:52:47;7.40;;;4.70;;
18818;SDS011;9537;45.594;9.294;2024-02-28T03:53:48;6.53;;;5.10;;
18818;SDS011;9537;45.594;9.294;2024-02-28T03:54:51;6.57;;;4.90;;
18818;SDS011;9537;45.594;9.294;2024-02-28T03:55:52;7.07;;;4.90;;
18818;SDS011;9537;45.594;9.294;2024-02-28T03:56:54;6.10;;;4.70;;
18818;SDS011;9537;45.594;9.294;2024-02-28T03:57:54;10.07;;;4.83;;
18818;SDS011;9537;45.594;9.294;2024-02-28T03:58:56;7.80;;;5.07;;
18818;SDS011;9537;45.594;9.294;2024-02-28T03:59:57;8.70;;;6.10;;
18818;SDS011;9537;45.594;9.294;2024-02-28T04:00:59;11.47;;;6.87;;
18818;SDS011;9537;45.594;9.294;2024-02-28T04:02:00;8.80;;;7.07;;
18818;SDS011;9537;45.594;9.294;2024-02-28T04:03:02;9.03;;;6.20;;
18818;SDS011;9537;45.594;9.294;2024-02-28T04:04:03;7.57;;;5.77;;
18818;SDS011;9537;45.594;9.294;2024-02-28T04:05:05;10.23;;;5.73;;
18818;SDS011;9537;45.594;9.294;2024-02-28T04:06:06;8.30;;;5.37;;
18818;SDS011;9537;45.594;9.294;2024-02-28T04:07:08;7.37;;;5.40;;
18818;SDS011;9537;45.594;9.294;2024-02-28T04:08:09;6.93;;;5.27;;
18818;SDS011;9537;45.594;9.294;2024-02-28T04:09:09;7.30;;;5.63;;
18818;SDS011;9537;45.594;9.294;2024-02-28T04:10:12;8.23;;;5.57;;
18818;SDS011;9537;45.594;9.294;2024-02-28T04:11:15;8.67;;;5.27;;
18818;SDS011;9537;45.594;9.294;2024-02-28T04:12:17;8.90;;;5.23;;
18818;SDS011;9537;45.594;9.294;2024-02-28T04:13:17;6.70;;;5.20;;
18818;SDS011;9537;45.594;9.294;2024-02-28T04:14:19;7.47;;;5.60;;
18818;SDS011;9537;45.594;9.294;2024-02-28T04:15:20;7.13;;;5.67;;
18818;SDS011;9537;45.594;9.294;2024-02-28T04:16:22;7.83;;;5.70;;
18818;SDS011;9537;45.594;9.294;2024-02-28T04:17:23;7.03;;;5.30;;
18818;SDS011;9537;45.594;9.294;2024-02-28T04:18:24;8.27;;;5.87;;
18818;SDS011;9537;45.594;9.294;2024-02-28T04:19:25;7.20;;;5.30;;
18818;SDS011;9537;45.594;9.294;2024-02-28T04:20:27;8.00;;;5.10;;
18818;SDS011;9537;45.594;9.294;2024-02-28T04:21:28;8.33;;;5.50;;
18818;SDS011;9537;45.594;9.294;2024-02-28T04:22:29;6.53;;;4.83;;
18818;SDS011;9537;45.594;9.294;2024-02-28T04:23:30;7.17;;;4.70;;
18818;SDS011;9537;45.594;9.294;2024-02-28T04:24:31;5.47;;;4.67;;
18818;SDS011;9537;45.594;9.294;2024-02-28T04:25:34;7.83;;;4.77;;
18818;SDS011;9537;45.594;9.294;2024-02-28T04:26:35;5.53;;;4.93;;
18818;SDS011;9537;45.594;9.294;2024-02-28T04:27:36;7.33;;;4.60;;
18818;SDS011;9537;45.594;9.294;2024-02-28T04:28:39;5.37;;;4.43;;
18818;SDS011;9537;45.594;9.294;2024-02-28T04:29:41;6.97;;;5.03;;
18818;SDS011;9537;45.594;9.294;2024-02-28T04:30:42;6.07;;;4.53;;
18818;SDS011;9537;45.594;9.294;2024-02-28T04:31:43;6.80;;;4.70;;
18818;SDS011;9537;45.594;9.294;2024-02-28T04:32:45;7.40;;;4.40;;
18818;SDS011;9537;45.594;9.294;2024-02-28T04:33:46;5.07;;;4.03;;
18818;SDS011;9537;45.594;9.294;2024-02-28T04:34:48;6.50;;;4.67;;
18818;SDS011;9537;45.594;9.294;2024-02-28T04:35:48;6.13;;;4.70;;
18818;SDS011;9537;45.594;9.294;2024-02-28T04:36:50;6.00;;;4.63;;
18818;SDS011;9537;45.594;9.294;2024-02-28T04:37:52;6.00;;;4.40;;
18818;SDS011;9537;45.594;9.294;2024-02-28T04:38:52;5.03;;;4.50;;
18818;SDS011;9537;45.594;9.294;2024-02-28T04:39:54;5.77;;;4.87;;
18818;SDS011;9537;45.594;9.294;2024-02-28T04:40:56;7.90;;;5.50;;
18818;SDS011;9537;45.594;9.294;2024-02-28T04:41:58;6.10;;;5.20;;
18818;SDS011;9537;45.594;9.294;2024-02-28T04:43:00;7.33;;;5.07;;
18818;SDS011;9537;45.594;9.294;2024-02-28T04:44:01;6.00;;;4.97;;
18818;SDS011;9537;45.594;9.294;2024-02-28T04:45:03;6.07;;;5.20;;
18818;SDS011;9537;45.594;9.294;2024-02-28T04:46:04;5.90;;;4.80;;
18818;SDS011;9537;45.594;9.294;2024-02-28T04:47:07;6.10;;;5.40;;
18818;SDS011;9537;45.594;9.294;2024-02-28T04:48:08;10.23;;;5.13;;
18818;SDS011;9537;45.594;9.294;2024-02-28T04:49:10;7.37;;;5.40;;
18818;SDS011;9537;45.594;9.294;2024-02-28T04:50:10;6.40;;;5.10;;
18818;SDS011;9537;45.594;9.294;2024-02-28T04:51:14;7.20;;;5.03;;
18818;SDS011;9537;45.594;9.294;2024-02-28T04:52:15;6.90;;;4.53;;
18818;SDS011;9537;45.594;9.294;2024-02-28T04:53:17;7.53;;;5.10;;
18818;SDS011;9537;45.594;9.294;2024-02-28T04:54:18;7.20;;;4.87;;
18818;SDS011;9537;45.594;9.294;2024-02-28T04:55:20;6.40;;;4.97;;
18818;SDS011;9537;45.594;9.294;2024-02-28T04:56:22;8.93;;;4.90;;
18818;SDS011;9537;45.594;9.294;2024-02-28T04:57:24;7.40;;;5.10;;
18818;SDS011;9537;45.594;9.294;2024-02-28T04:58:24;7.23;;;5.00;;
18818;SDS011;9537;45.594;9.294;2024-02-28T04:59:26;5.77;;;4.70;;
18818;SDS011;9537;45.594;9.294;2024-02-28T05:00:27;7.40;;;4.30;;
18818;SDS011;9537;45.594;9.294;2024-02-28T05:01:29;5.60;;;4.47;;
18818;SDS011;9537;45.594;9.294;2024-02-28T05:02:30;6.03;;;5.00;;
18818;SDS011;9537;45.594;9.294;2024-02-28T05:03:32;7.17;;;5.27;;
18818;SDS011;9537;45.594;9.294;2024-02-28T05:04:32;5.77;;;4.53;;
18818;SDS011;9537;45.594;9.294;2024-02-28T05:05:34;6.60;;;4.90;;
18818;SDS011;9537;45.594;9.294;2024-02-28T05:06:35;6.33;;;4.67;;
18818;SDS011;9537;45.594;9.294;2024-02-28T05:07:36;7.33;;;5.17;;
18818;SDS011;9537;45.594;9.294;2024-02-28T05:08:37;6.77;;;4.43;;
18818;SDS011;9537;45.594;9.294;2024-02-28T05:09:39;6.53;;;4.60;;
18818;SDS011;9537;45.594;9.294;2024-02-28T05:10:40;6.47;;;4.60;;
18818;SDS011;9537;45.594;9.294;2024-02-28T05:11:43;5.17;;;4.57;;
18818;SDS011;9537;45.594;9.294;2024-02-28T05:12:44;6.07;;;4.47;;
18818;SDS011;9537;45.594;9.294;2024-02-28T05:13:47;5.77;;;4.50;;
18818;SDS011;9537;45.594;9.294;2024-02-28T05:14:49;6.77;;;4.23;;
18818;SDS011;9537;45.594;9.294;2024-02-28T05:15:51;5.33;;;4.47;;
18818;SDS011;9537;45.594;9.294;2024-02-28T05:16:52;5.47;;;4.13;;
18818;SDS011;9537;45.594;9.294;2024-02-28T05:17:53;6.03;;;4.90;;
18818;SDS011;9537;45.594;9.294;2024-02-28T05:18:55;5.53;;;4.57;;
18818;SDS011;9537;45.594;9.294;2024-02-28T05:19:56;5.63;;;4.70;;
18818;SDS011;9537;45.594;9.294;2024-02-28T05:20:57;5.27;;;4.40;;
18818;SDS011;9537;45.594;9.294;2024-02-28T05:22:01;5.50;;;4.23;;
18818;SDS011;9537;45.594;9.294;2024-02-28T05:23:03;6.63;;;4.53;;
18818;SDS011;9537;45.594;9.294;2024-02-28T05:24:05;5.33;;;4.10;;
18818;SDS011;9537;45.594;9.294;2024-02-28T05:25:06;4.47;;;3.97;;
18818;SDS011;9537;45.594;9.294;2024-02-28T05:26:08;6.20;;;4.40;;
18818;SDS011;9537;45.594;9.294;2024-02-28T05:27:10;6.87;;;4.27;;
18818;SDS011;9537;45.594;9.294;2024-02-28T05:28:12;5.10;;;4.23;;
18818;SDS011;9537;45.594;9.294;2024-02-28T05:29:12;5.60;;;4.50;;
18818;SDS011;9537;45.594;9.294;2024-02-28T05:30:14;4.67;;;3.93;;
18818;SDS011;9537;45.594;9.294;2024-02-28T05:31:20;4.43;;;4.03;;
18818;SDS011;9537;45.594;9.294;2024-02-28T05:32:22;5.73;;;4.10;;
18818;SDS011;9537;45.594;9.294;2024-02-28T05:33:24;8.67;;;4.50;;
18818;SDS011;9537;45.594;9.294;2024-02-28T05:34:24;4.53;;;3.90;;
18818;SDS011;9537;45.594;9.294;2024-02-28T05:35:26;7.23;;;4.50;;
18818;SDS011;9537;45.594;9.294;2024-02-28T05:36:27;6.60;;;4.40;;
18818;SDS011;9537;45.594;9.294;2024-02-28T05:37:30;5.87;;;4.30;;
18818;SDS011;9537;45.594;9.294;2024-02-28T05:38:31;6.10;;;4.50;;
18818;SDS011;9537;45.594;9.294;2024-02-28T05:39:33;7.13;;;4.77;;
18818;SDS011;9537;45.594;9.294;2024-02-28T05:40:33;5.90;;;4.83;;
18818;SDS011;9537;45.594;9.294;2024-02-28T05:41:35;7.23;;;4.73;;
18818;SDS011;9537;45.594;9.294;2024-02-28T05:42:37;6.17;;;4.60;;
18818;SDS011;9537;45.594;9.294;2024-02-28T05:43:40;6.27;;;4.70;;
18818;SDS011;9537;45.594;9.294;2024-02-28T05:44:41;8.57;;;4.80;;
18818;SDS011;9537;45.594;9.294;2024-02-28T05:45:44;8.97;;;5.73;;
18818;SDS011;9537;45.594;9.294;2024-02-28T05:46:44;9.47;;;4.60;;
18818;SDS011;9537;45.594;9.294;2024-02-28T05:47:46;7.27;;;4.77;;
18818;SDS011;9537;45.594;9.294;2024-02-28T05:48:47;8.60;;;4.97;;
18818;SDS011;9537;45.594;9.294;2024-02-28T05:49:48;6.43;;;5.57;;
18818;SDS011;9537;45.594;9.294;2024-02-28T05:50:50;6.53;;;5.27;;
18818;SDS011;9537;45.594;9.294;2024-02-28T05:51:51;6.30;;;5.10;;
18818;SDS011;9537;45.594;9.294;2024-02-28T05:52:54;6.13;;;4.97;;
18818;SDS011;9537;45.594;9.294;2024-02-28T05:53:54;6.47;;;5.27;;
18818;SDS011;9537;45.594;9.294;2024-02-28T05:54:56;9.77;;;5.30;;
18818;SDS011;9537;45.594;9.294;2024-02-28T05:55:57;6.90;;;5.07;;
18818;SDS011;9537;45.594;9.294;2024-02-28T05:56:57;8.30;;;5.30;;
18818;SDS011;9537;45.594;9.294;2024-02-28T05:58:01;6.80;;;5.03;;
18818;SDS011;9537;45.594;9.294;2024-02-28T05:59:01;7.67;;;4.80;;
18818;SDS011;9537;45.594;9.294;2024-02-28T06:00:04;6.47;;;4.40;;
18818;SDS011;9537;45.594;9.294;2024-02-28T06:01:10;6.17;;;4.97;;
18818;SDS011;9537;45.594;9.294;2024-02-28T06:02:12;6.73;;;5.20;;
18818;SDS011;9537;45.594;9.294;2024-02-28T06:03:13;7.40;;;4.77;;
18818;SDS011;9537;45.594;9.294;2024-02-28T06:04:13;8.13;;;5.57;;
18818;SDS011;9537;45.594;9.294;2024-02-28T06:05:15;8.00;;;4.83;;
18818;SDS011;9537;45.594;9.294;2024-02-28T06:06:16;6.73;;;5.33;;
18818;SDS011;9537;45.594;9.294;2024-02-28T06:07:18;7.80;;;5.27;;
18818;SDS011;9537;45.594;9.294;2024-02-28T06:08:19;7.03;;;5.20;;
18818;SDS011;9537;45.594;9.294;2024-02-28T06:09:20;7.83;;;5.07;;
18818;SDS011;9537;45.594;9.294;2024-02-28T06:10:21;6.40;;;5.20;;
18818;SDS011;9537;45.594;9.294;2024-02-28T06:11:23;6.20;;;4.70;;
18818;SDS011;9537;45.594;9.294;2024-02-28T06:12:23;6.80;;;5.10;;
18818;SDS011;9537;45.594;9.294;2024-02-28T06:13:27;9.47;;;5.20;;
18818;SDS011;9537;45.594;9.294;2024-02-28T06:14:28;6.93;;;5.07;;
18818;SDS011;9537;45.594;9.294;2024-02-28T06:15:30;7.67;;;5.10;;